createdAt,value
2017-12-08T00:02:22.366Z,79.10
2017-12-08T00:04:50.150Z,80.60
2017-12-08T00:07:18.303Z,78.10
2017-12-08T00:09:47.002Z,78.00
2017-12-08T00:12:15.719Z,78.50
2017-12-08T00:14:43.378Z,76.70
2017-12-08T00:17:13.043Z,77.70
2017-12-08T00:19:42.204Z,75.30
2017-12-08T00:22:11.814Z,79.20
2017-12-08T00:24:39.407Z,79.30
2017-12-08T00:29:41.789Z,76.90
2017-12-08T00:32:09.483Z,76.70
2017-12-08T00:34:41.823Z,76.20
2017-12-08T00:37:09.549Z,76.80
2017-12-08T00:39:42.845Z,76.10
2017-12-08T00:42:10.453Z,79.60
2017-12-08T00:44:39.138Z,80.10
2017-12-08T00:47:07.490Z,79.50
2017-12-08T00:49:35.130Z,79.30
2017-12-08T00:52:02.698Z,80.10
2017-12-08T00:54:30.375Z,79.80
2017-12-08T00:56:57.986Z,80.10
2017-12-08T00:59:27.581Z,78.80
2017-12-08T01:01:56.866Z,81.00
2017-12-08T01:04:25.299Z,80.30
2017-12-08T01:06:53.324Z,80.40
2017-12-08T01:09:21.041Z,81.50
2017-12-08T01:11:49.123Z,82.20
2017-12-08T01:14:17.374Z,81.60
2017-12-08T01:16:46.227Z,81.60
2017-12-08T01:19:13.847Z,81.60
2017-12-08T01:21:42.373Z,81.00
2017-12-08T01:24:12.612Z,82.40
2017-12-08T01:26:40.181Z,83.60
2017-12-08T01:29:10.353Z,82.40
2017-12-08T01:31:38.828Z,80.90
2017-12-08T01:34:07.970Z,80.90
2017-12-08T01:36:35.754Z,82.40
2017-12-08T01:39:05.363Z,82.30
2017-12-08T01:41:33.501Z,82.10
2017-12-08T01:44:01.738Z,82.00
2017-12-08T01:46:29.352Z,81.10
2017-12-08T01:48:56.917Z,81.00
2017-12-08T01:51:24.480Z,80.10
2017-12-08T01:53:52.842Z,80.00
2017-12-08T01:56:20.388Z,79.90
2017-12-08T01:58:48.928Z,80.30
2017-12-08T02:01:16.483Z,81.30
2017-12-08T02:03:44.061Z,81.00
2017-12-08T02:06:11.602Z,79.20
2017-12-08T02:08:39.175Z,80.80
2017-12-08T02:11:07.548Z,78.90
2017-12-08T02:13:35.113Z,79.50
2017-12-08T02:16:02.658Z,79.20
2017-12-08T02:18:30.245Z,79.60
2017-12-08T02:20:58.584Z,81.30
2017-12-08T02:23:27.010Z,81.30
2017-12-08T02:25:54.642Z,82.60
2017-12-08T02:28:25.305Z,81.10
2017-12-08T02:30:53.939Z,82.60
2017-12-08T02:33:23.023Z,82.70
2017-12-08T02:35:50.679Z,81.30
2017-12-08T02:38:19.076Z,81.90
2017-12-08T02:40:48.296Z,82.10
2017-12-08T02:43:15.857Z,82.20
2017-12-08T02:45:44.457Z,81.00
2017-12-08T02:48:12.151Z,81.10
2017-12-08T02:50:40.758Z,81.90
2017-12-08T02:53:10.782Z,81.70
2017-12-08T02:55:39.542Z,81.50
2017-12-08T02:58:07.107Z,81.20
2017-12-08T03:00:34.649Z,82.10
2017-12-08T03:03:02.242Z,83.00
2017-12-08T03:05:29.778Z,82.80
2017-12-08T03:07:57.445Z,83.20
2017-12-08T03:10:25.021Z,83.70
2017-12-08T03:12:52.695Z,84.40
2017-12-08T03:15:20.244Z,84.40
2017-12-08T03:17:47.803Z,84.20
2017-12-08T03:20:15.392Z,83.80
2017-12-08T03:22:43.730Z,82.40
2017-12-08T03:25:11.303Z,82.30
2017-12-08T03:27:40.852Z,82.90
2017-12-08T03:30:08.397Z,81.90
2017-12-08T03:32:36.736Z,83.20
2017-12-08T03:35:04.276Z,83.10
2017-12-08T03:37:31.827Z,83.70
2017-12-08T03:39:59.393Z,81.80
2017-12-08T03:42:27.917Z,82.10
2017-12-08T03:44:56.250Z,84.50
2017-12-08T03:47:23.794Z,84.50
2017-12-08T03:49:51.368Z,86.10
2017-12-08T03:52:18.904Z,85.30
2017-12-08T03:54:46.502Z,82.30
2017-12-08T03:57:14.089Z,83.00
2017-12-08T03:59:41.680Z,83.10
2017-12-08T04:02:09.237Z,82.80
2017-12-08T04:04:36.796Z,81.90
2017-12-08T04:07:04.346Z,82.40
2017-12-08T04:09:31.914Z,83.30
2017-12-08T04:11:59.491Z,82.30
2017-12-08T04:14:27.074Z,81.80
2017-12-08T04:16:54.660Z,83.00
2017-12-08T04:19:22.248Z,81.40
2017-12-08T04:21:49.880Z,80.80
2017-12-08T04:24:17.467Z,80.60
2017-12-08T04:26:45.149Z,80.80
2017-12-08T04:29:12.926Z,81.00
2017-12-08T04:31:41.836Z,80.40
2017-12-08T04:34:09.556Z,80.40
2017-12-08T04:36:37.515Z,81.30
2017-12-08T04:39:05.401Z,80.90
2017-12-08T04:41:33.086Z,81.20
2017-12-08T04:44:01.360Z,80.90
2017-12-08T04:46:29.826Z,80.20
2017-12-08T04:48:58.492Z,79.80
2017-12-08T04:51:27.059Z,80.60
2017-12-08T04:53:55.468Z,79.60
2017-12-08T04:56:23.977Z,79.60
2017-12-08T04:58:52.891Z,79.50
2017-12-08T05:01:20.561Z,80.00
2017-12-08T05:03:58.576Z,78.90
2017-12-08T05:06:26.412Z,79.90
2017-12-08T05:08:54.096Z,81.20
2017-12-08T05:11:22.395Z,78.60
2017-12-08T05:13:50.066Z,78.60
2017-12-08T05:16:18.514Z,79.10
2017-12-08T05:18:47.137Z,77.60
2017-12-08T05:21:15.739Z,78.30
2017-12-08T05:23:43.323Z,78.30
2017-12-08T05:26:12.378Z,78.00
2017-12-08T05:28:41.942Z,77.90
2017-12-08T05:31:10.264Z,77.30
2017-12-08T05:33:38.112Z,77.30
2017-12-08T05:36:05.758Z,78.40
2017-12-08T05:38:34.066Z,77.90
2017-12-08T05:41:01.631Z,77.60
2017-12-08T05:43:29.215Z,79.50
2017-12-08T05:45:58.080Z,78.70
2017-12-08T05:48:25.737Z,78.30
2017-12-08T05:50:53.274Z,78.50
2017-12-08T05:53:20.908Z,77.40
2017-12-08T05:55:48.467Z,77.80
2017-12-08T05:58:16.073Z,78.10
2017-12-08T06:00:44.119Z,79.00
2017-12-08T06:03:11.723Z,78.80
2017-12-08T06:05:39.335Z,79.60
2017-12-08T06:08:10.136Z,79.10
2017-12-08T06:10:37.750Z,79.70
2017-12-08T06:13:05.331Z,79.40
2017-12-08T06:15:33.951Z,81.70
2017-12-08T06:18:02.391Z,81.80
2017-12-08T06:20:29.940Z,81.80
2017-12-08T06:22:57.513Z,80.60
2017-12-08T06:25:25.119Z,84.80
2017-12-08T06:27:53.477Z,90.10
2017-12-08T06:30:21.794Z,88.20
2017-12-08T06:32:49.392Z,88.20
2017-12-08T06:35:16.957Z,90.70
2017-12-08T06:37:46.306Z,89.70
2017-12-08T06:40:13.912Z,91.20
2017-12-08T06:42:41.606Z,90.50
2017-12-08T06:45:09.200Z,90.40
2017-12-08T06:47:36.864Z,91.40
2017-12-08T06:50:04.635Z,91.60
2017-12-08T06:52:35.300Z,90.90
2017-12-08T06:55:03.674Z,90.90
2017-12-08T06:57:31.322Z,90.90
2017-12-08T06:59:58.967Z,91.00
2017-12-08T07:02:26.663Z,90.10
2017-12-08T07:04:55.013Z,91.30
2017-12-08T07:07:22.588Z,91.30
2017-12-08T07:09:50.165Z,90.70
2017-12-08T07:12:18.652Z,90.70
2017-12-08T07:14:47.071Z,90.90
2017-12-08T07:17:16.950Z,90.60
2017-12-08T07:19:45.289Z,90.60
2017-12-08T07:22:12.933Z,90.60
2017-12-08T07:24:41.521Z,90.70
2017-12-08T07:27:10.171Z,90.30
2017-12-08T07:29:37.762Z,90.40
2017-12-08T07:32:05.384Z,90.50
2017-12-08T07:34:33.756Z,89.70
2017-12-08T07:37:03.097Z,90.30
2017-12-08T07:39:31.652Z,90.40
2017-12-08T07:42:00.538Z,90.30
2017-12-08T07:44:28.124Z,90.70
2017-12-08T07:46:55.729Z,90.30
2017-12-08T07:49:24.057Z,90.30
2017-12-08T07:51:51.629Z,90.30
2017-12-08T07:54:19.208Z,89.50
2017-12-08T07:56:46.799Z,91.30
2017-12-08T07:59:15.135Z,91.10
2017-12-08T08:01:42.745Z,91.10
2017-12-08T08:04:11.049Z,91.20
2017-12-08T08:06:38.653Z,91.10
2017-12-08T08:09:07.150Z,91.30
2017-12-08T08:11:34.794Z,91.30
2017-12-08T08:14:02.399Z,91.10
2017-12-08T08:16:30.013Z,91.30
2017-12-08T08:18:57.673Z,91.30
2017-12-08T08:21:26.122Z,90.00
2017-12-08T08:23:53.697Z,90.00
2017-12-08T08:26:21.292Z,89.90
2017-12-08T08:28:48.929Z,90.60
2017-12-08T08:31:16.505Z,90.80
2017-12-08T08:33:44.833Z,91.40
2017-12-08T08:36:12.403Z,91.20
2017-12-08T08:38:39.935Z,88.00
2017-12-08T08:41:07.530Z,90.10
2017-12-08T08:43:35.071Z,90.60
2017-12-08T08:54:23.180Z,90.80
2017-12-08T08:56:50.746Z,88.60
2017-12-08T08:59:18.283Z,89.20
2017-12-08T09:01:45.896Z,88.50
2017-12-08T09:04:14.216Z,90.90
2017-12-08T09:06:42.018Z,90.90
2017-12-08T09:09:10.325Z,90.60
2017-12-08T09:11:38.132Z,90.00
2017-12-08T09:14:05.685Z,88.00
2017-12-08T09:16:33.262Z,90.50
2017-12-08T09:19:00.807Z,90.50
2017-12-08T09:21:28.370Z,90.90
2017-12-08T09:23:55.925Z,90.40
2017-12-08T09:26:24.476Z,90.40
2017-12-08T09:28:52.012Z,89.60
2017-12-08T09:31:20.364Z,90.00
2017-12-08T09:33:47.894Z,90.00
2017-12-08T09:36:15.457Z,90.20
2017-12-08T09:38:42.993Z,90.30
2017-12-08T09:41:10.552Z,88.50
2017-12-08T09:43:39.068Z,88.60
2017-12-08T09:48:40.470Z,83.80
2017-12-08T09:51:10.736Z,84.20
2017-12-08T09:53:38.301Z,84.20
2017-12-08T09:56:05.963Z,85.40
2017-12-08T09:58:33.540Z,83.10
2017-12-08T10:01:01.113Z,82.70
2017-12-08T10:03:28.651Z,81.40
2017-12-08T10:05:57.202Z,79.30
2017-12-08T10:08:24.744Z,77.50
2017-12-08T10:10:52.351Z,83.90
2017-12-08T10:13:19.888Z,82.30
2017-12-08T10:15:47.469Z,78.40
2017-12-08T10:18:15.000Z,78.50
2017-12-08T10:20:42.597Z,77.10
2017-12-08T10:23:10.140Z,82.20
2017-12-08T10:25:37.696Z,80.70
2017-12-08T10:28:06.190Z,84.60
2017-12-08T10:30:33.760Z,78.70
2017-12-08T10:33:01.322Z,79.20
2017-12-08T10:35:30.514Z,80.40
2017-12-08T10:37:58.044Z,80.30
2017-12-08T10:40:27.609Z,79.70
2017-12-08T10:42:56.527Z,77.90
2017-12-08T10:45:24.099Z,80.00
2017-12-08T10:47:51.628Z,79.20
2017-12-08T10:50:19.853Z,75.80
2017-12-08T10:52:48.363Z,73.50
2017-12-08T10:55:16.694Z,78.50
2017-12-08T10:57:44.221Z,78.50
2017-12-08T11:00:13.735Z,72.90
2017-12-08T11:02:42.239Z,76.10
2017-12-08T11:05:09.803Z,74.10
2017-12-08T11:07:37.361Z,78.90
2017-12-08T11:10:04.924Z,71.50
2017-12-08T11:12:32.462Z,74.50
2017-12-08T11:15:00.066Z,75.40
2017-12-08T11:17:27.603Z,71.90
2017-12-08T11:19:55.992Z,69.70
2017-12-08T11:22:23.531Z,72.70
2017-12-08T11:24:51.118Z,72.00
2017-12-08T11:27:18.696Z,75.60
2017-12-08T11:29:48.217Z,70.30
2017-12-08T11:32:15.784Z,71.10
2017-12-08T11:34:43.352Z,73.30
2017-12-08T11:37:10.897Z,71.50
2017-12-08T11:39:38.455Z,70.60
2017-12-08T11:42:06.153Z,69.40
2017-12-08T11:44:33.713Z,71.30
2017-12-08T11:47:01.913Z,72.30
2017-12-08T11:49:30.246Z,68.30
2017-12-08T11:51:57.789Z,68.50
2017-12-08T11:54:25.350Z,68.60
2017-12-08T11:59:26.628Z,69.30
2017-12-08T12:01:54.164Z,69.40
2017-12-08T12:04:22.747Z,69.90
2017-12-08T12:06:51.244Z,71.90
2017-12-08T12:09:18.808Z,65.40
2017-12-08T12:11:48.239Z,68.80
2017-12-08T12:14:16.367Z,66.60
2017-12-08T12:16:43.896Z,66.50
2017-12-08T12:19:12.193Z,69.20
2017-12-08T12:21:39.762Z,69.30
2017-12-08T12:24:07.291Z,69.50
2017-12-08T12:26:37.560Z,76.50
2017-12-08T12:29:05.099Z,76.60
2017-12-08T12:31:32.668Z,77.60
2017-12-08T12:34:01.153Z,81.80
2017-12-08T12:36:29.731Z,82.10
2017-12-08T12:38:57.265Z,80.90
2017-12-08T12:41:24.821Z,81.30
2017-12-08T12:43:52.366Z,81.10
2017-12-08T12:46:20.691Z,79.60
2017-12-08T12:48:49.158Z,79.60
2017-12-08T12:51:16.734Z,76.80
2017-12-08T12:53:44.273Z,77.70
2017-12-08T12:56:12.646Z,79.20
2017-12-08T12:58:40.179Z,77.60
2017-12-08T13:01:09.406Z,76.90
2017-12-08T13:03:36.943Z,77.70
2017-12-08T13:06:04.524Z,75.90
2017-12-08T13:08:32.947Z,78.40
2017-12-08T13:11:01.553Z,77.10
2017-12-08T13:13:29.560Z,77.00
2017-12-08T13:15:57.361Z,74.60
2017-12-08T13:18:24.913Z,77.70
2017-12-08T13:20:52.513Z,75.20
2017-12-08T13:23:20.052Z,75.10
2017-12-08T13:25:48.212Z,76.60
2017-12-08T13:28:15.744Z,75.90
2017-12-08T13:30:43.307Z,76.20
2017-12-08T13:33:10.833Z,73.20
2017-12-08T13:35:38.412Z,73.50
2017-12-08T13:38:05.960Z,72.40
2017-12-08T13:40:35.964Z,72.50
2017-12-08T13:43:03.570Z,71.50
2017-12-08T13:45:31.537Z,73.20
2017-12-08T13:48:00.067Z,73.10
2017-12-08T13:50:28.748Z,72.60
2017-12-08T13:52:56.800Z,72.90
2017-12-08T13:55:36.335Z,72.40
2017-12-08T13:58:04.869Z,73.30
2017-12-08T14:00:33.427Z,73.20
2017-12-08T14:03:01.393Z,71.20
2017-12-08T14:05:29.618Z,73.40
2017-12-08T14:07:58.345Z,70.40
2017-12-08T14:10:27.013Z,71.10
2017-12-08T14:12:55.361Z,73.00
2017-12-08T14:15:24.454Z,72.70
2017-12-08T14:17:52.710Z,72.90
2017-12-08T14:20:20.756Z,70.70
2017-12-08T14:22:48.986Z,69.00
2017-12-08T14:25:18.369Z,72.20
2017-12-08T14:27:45.938Z,71.50
2017-12-08T14:30:15.517Z,71.80
2017-12-08T14:32:43.138Z,69.40
2017-12-08T14:35:11.698Z,70.60
2017-12-08T14:37:39.380Z,70.30
2017-12-08T14:40:08.144Z,70.60
2017-12-08T14:42:36.872Z,70.70
2017-12-08T14:45:04.572Z,70.70
2017-12-08T14:47:32.542Z,68.80
2017-12-08T14:50:05.545Z,63.10
2017-12-08T14:52:33.244Z,63.20
2017-12-08T14:55:01.372Z,64.80
2017-12-08T14:57:29.000Z,66.00
2017-12-08T14:59:58.159Z,70.10
2017-12-08T15:02:26.433Z,65.70
2017-12-08T15:04:54.979Z,67.10
2017-12-08T15:07:24.047Z,62.70
2017-12-08T15:09:52.010Z,62.50
2017-12-08T15:12:20.727Z,63.00
2017-12-08T15:14:49.347Z,67.50
2017-12-08T15:17:18.550Z,64.30
2017-12-08T15:19:48.392Z,67.20
2017-12-08T15:22:15.995Z,65.80
2017-12-08T15:24:43.542Z,64.70
2017-12-08T15:27:11.117Z,63.90
2017-12-08T15:29:39.921Z,64.20
2017-12-08T15:32:08.287Z,67.30
2017-12-08T15:34:36.005Z,67.40
2017-12-08T15:37:03.909Z,65.20
2017-12-08T15:39:33.116Z,68.00
2017-12-08T15:42:00.729Z,65.90
2017-12-08T15:44:28.341Z,69.60
2017-12-08T15:46:55.935Z,66.90
2017-12-08T15:49:23.513Z,67.70
2017-12-08T15:51:52.020Z,66.50
2017-12-08T15:54:19.620Z,69.50
2017-12-08T15:56:47.238Z,71.60
2017-12-08T15:59:14.823Z,71.90
2017-12-08T16:01:42.351Z,70.70
2017-12-08T16:04:10.747Z,68.60
2017-12-08T16:06:38.319Z,67.40
2017-12-08T16:09:05.891Z,66.80
2017-12-08T16:11:34.234Z,68.40
2017-12-08T16:14:01.803Z,68.30
2017-12-08T16:16:30.115Z,68.50
2017-12-08T16:18:58.501Z,68.10
2017-12-08T16:21:26.093Z,68.00
2017-12-08T16:23:53.671Z,67.40
2017-12-08T16:26:21.253Z,66.10
2017-12-08T16:28:48.827Z,66.80
2017-12-08T16:31:17.185Z,67.70
2017-12-08T16:33:44.746Z,67.60
2017-12-08T16:36:12.308Z,66.60
2017-12-08T16:38:41.574Z,65.30
2017-12-08T16:41:10.166Z,65.30
2017-12-08T16:43:37.699Z,67.20
2017-12-08T16:46:05.228Z,68.30
2017-12-08T16:48:32.827Z,68.20
2017-12-08T16:51:00.392Z,68.90
2017-12-08T16:53:28.912Z,69.00
2017-12-08T16:55:57.801Z,69.20
2017-12-08T16:58:26.147Z,66.50
2017-12-08T17:00:53.740Z,66.50
2017-12-08T17:03:22.146Z,65.60
2017-12-08T17:05:49.681Z,65.50
2017-12-08T17:08:19.014Z,66.30
2017-12-08T17:10:46.562Z,66.30
2017-12-08T17:13:14.123Z,66.40
2017-12-08T17:15:41.661Z,68.40
2017-12-08T17:18:10.007Z,66.90
2017-12-08T17:20:37.616Z,66.90
2017-12-08T17:23:05.139Z,63.10
2017-12-08T17:25:32.703Z,60.90
2017-12-08T17:28:01.047Z,62.90
2017-12-08T17:30:30.542Z,63.00
2017-12-08T17:32:58.110Z,63.10
2017-12-08T17:35:25.712Z,63.50
2017-12-08T17:37:54.030Z,63.90
2017-12-08T17:40:21.579Z,63.90
2017-12-08T17:42:49.136Z,64.50
2017-12-08T17:45:16.707Z,61.60
2017-12-08T17:47:44.253Z,62.30
2017-12-08T17:50:11.808Z,60.60
2017-12-08T17:52:39.386Z,61.60
2017-12-08T17:55:06.979Z,59.00
2017-12-08T17:57:34.715Z,61.10
2017-12-08T18:00:02.288Z,60.70
2017-12-08T18:02:29.929Z,59.90
2017-12-08T18:04:57.616Z,61.90
2017-12-08T18:07:26.178Z,62.30
2017-12-08T18:09:53.717Z,59.30
2017-12-08T18:12:22.269Z,59.10
2017-12-08T18:14:50.661Z,58.90
2017-12-08T18:17:18.442Z,58.90
2017-12-08T18:19:45.995Z,57.20
2017-12-08T18:22:14.039Z,58.80
2017-12-08T18:24:41.880Z,58.80
2017-12-08T18:27:09.936Z,59.20
2017-12-08T18:29:37.573Z,59.10
2017-12-08T18:32:13.842Z,58.40
2017-12-08T18:34:43.071Z,60.60
2017-12-08T18:37:10.619Z,59.40
2017-12-08T18:39:40.380Z,59.70
2017-12-08T18:42:10.621Z,59.30
2017-12-08T18:44:38.219Z,60.70
2017-12-08T18:47:05.837Z,63.10
2017-12-08T18:49:33.420Z,61.60
2017-12-08T18:54:33.146Z,63.30
2017-12-08T18:57:03.289Z,63.40
2017-12-08T18:59:31.855Z,64.10
2017-12-08T19:02:00.469Z,64.10
2017-12-08T19:04:28.145Z,64.50
2017-12-08T19:06:55.794Z,64.70
2017-12-08T19:09:24.410Z,63.40
2017-12-08T19:11:52.012Z,64.20
2017-12-08T19:14:19.551Z,64.20
2017-12-08T19:16:47.110Z,63.90
2017-12-08T19:19:14.639Z,65.10
2017-12-08T19:21:43.178Z,67.70
2017-12-08T19:24:10.886Z,70.20
2017-12-08T19:26:38.431Z,72.80
2017-12-08T19:29:06.016Z,75.60
2017-12-08T19:31:33.641Z,75.60
2017-12-08T19:34:01.223Z,76.70
2017-12-08T19:36:28.897Z,76.20
2017-12-08T19:38:56.558Z,75.60
2017-12-08T19:41:24.608Z,73.30
2017-12-08T19:43:53.174Z,72.20
2017-12-08T19:46:23.065Z,74.40
2017-12-08T19:48:51.868Z,74.40
2017-12-08T19:51:25.034Z,74.20
2017-12-08T19:54:02.756Z,74.20
2017-12-08T19:56:32.005Z,75.20
2017-12-08T20:01:45.249Z,75.20
2017-12-08T20:04:14.765Z,75.10
2017-12-08T20:06:43.377Z,74.40
2017-12-08T20:09:10.904Z,74.20
2017-12-08T20:11:39.142Z,74.00
2017-12-08T20:14:08.436Z,73.20
2017-12-08T20:16:37.083Z,73.10
2017-12-08T20:19:06.049Z,73.80
2017-12-08T20:21:34.499Z,74.00
2017-12-08T20:24:03.208Z,73.80
2017-12-08T20:26:31.786Z,74.10
2017-12-08T20:28:59.799Z,74.10
2017-12-08T20:34:12.034Z,73.90
2017-12-08T20:36:44.830Z,73.50
2017-12-08T20:39:12.864Z,73.40
2017-12-08T20:41:41.119Z,72.50
2017-12-08T20:44:09.867Z,70.30
2017-12-08T20:46:38.902Z,70.40
2017-12-08T20:49:07.100Z,70.50
2017-12-08T20:51:35.686Z,71.40
2017-12-08T20:54:14.481Z,70.20
2017-12-08T20:56:42.636Z,70.20
2017-12-08T20:59:11.385Z,69.30
2017-12-08T21:01:39.704Z,69.50
2017-12-08T21:04:07.424Z,68.40
2017-12-08T21:06:36.855Z,69.20
2017-12-08T21:09:05.311Z,68.90
2017-12-08T21:11:34.288Z,69.00
2017-12-08T21:14:03.125Z,69.00
2017-12-08T21:16:33.284Z,69.60
2017-12-08T21:19:03.190Z,69.20
2017-12-08T21:21:31.682Z,69.20
2017-12-08T21:24:01.430Z,68.60
2017-12-08T21:26:30.415Z,68.50
2017-12-08T21:28:59.074Z,68.30
2017-12-08T21:31:28.458Z,67.00
2017-12-08T21:33:57.080Z,66.60
2017-12-08T21:36:25.719Z,66.70
2017-12-08T21:38:53.808Z,65.50
2017-12-08T21:41:23.322Z,64.20
2017-12-08T21:43:52.076Z,64.20
2017-12-08T21:46:21.668Z,64.20
2017-12-08T21:48:56.321Z,65.30
2017-12-08T21:54:30.803Z,62.40
2017-12-08T21:57:03.971Z,62.40
2017-12-08T21:59:34.396Z,62.00
2017-12-08T22:02:03.435Z,61.60
2017-12-08T22:04:32.017Z,61.60
2017-12-08T22:07:00.671Z,62.20
2017-12-08T22:09:29.633Z,64.30
2017-12-08T22:11:58.072Z,64.20
2017-12-08T22:14:28.133Z,64.40
2017-12-08T22:16:56.663Z,65.50
2017-12-08T22:19:24.462Z,64.20
2017-12-08T22:21:54.046Z,63.70
2017-12-08T22:24:24.744Z,63.70
2017-12-08T22:26:54.560Z,62.70
2017-12-08T22:29:32.352Z,63.50
2017-12-08T22:32:03.213Z,64.60
2017-12-08T22:34:34.060Z,64.40
2017-12-08T22:37:02.639Z,64.60
2017-12-08T22:39:33.695Z,65.10
2017-12-08T22:42:01.822Z,64.90
2017-12-08T22:44:32.333Z,63.70
2017-12-08T22:47:00.996Z,65.20
2017-12-08T22:49:28.774Z,65.90
2017-12-08T22:51:59.924Z,60.60
2017-12-08T22:54:28.819Z,62.20
2017-12-08T22:57:11.048Z,62.20
2017-12-08T22:59:39.047Z,63.00
2017-12-08T23:04:44.651Z,63.30
2017-12-08T23:07:14.775Z,62.80
2017-12-08T23:09:44.264Z,63.00
2017-12-08T23:12:12.389Z,63.10
2017-12-08T23:14:39.961Z,62.30
2017-12-08T23:17:08.141Z,60.90
2017-12-08T23:19:36.673Z,62.40
2017-12-08T23:22:08.143Z,59.90
2017-12-08T23:24:36.581Z,59.90
2017-12-08T23:27:05.248Z,60.10
2017-12-08T23:29:34.321Z,58.50
2017-12-08T23:32:02.524Z,59.00
2017-12-08T23:34:30.558Z,59.10
2017-12-08T23:36:59.330Z,58.40
2017-12-08T23:39:35.716Z,58.60
2017-12-08T23:42:03.759Z,58.50
2017-12-08T23:44:32.639Z,59.70
2017-12-08T23:47:00.819Z,59.50
2017-12-08T23:49:28.717Z,60.10
2017-12-08T23:51:57.510Z,59.20
2017-12-08T23:54:25.992Z,59.60
2017-12-08T23:56:55.237Z,59.60
2017-12-08T23:59:23.197Z,59.70
